ADDS METAR Data INFO
IDs: Format: Raw Decoded Include TAF

Data at: 1133 UTC 29 May 2017

KW43 291115Z AUTO 00000KT 10SM CLR 05/01 A3020 RMK AO2
KW43 291055Z AUTO 25003KT 10SM CLR 07/00 A3019 RMK AO2
KW43 291035Z AUTO 00000KT 10SM CLR 07/01 A3019 RMK AO2
KW43 291015Z AUTO 23003KT 10SM CLR 06/01 A3019 RMK AO2
KW43 290955Z AUTO 26003KT 10SM SCT065 07/01 A3018 RMK AO2
KW43 290935Z AUTO 24003KT 10SM CLR 07/02 A3018 RMK AO2
KW43 290915Z AUTO 21004KT 10SM CLR 06/02 A3018 RMK AO2
KW43 290855Z AUTO 22004KT 10SM CLR 07/03 A3018 RMK AO2
KW43 290835Z AUTO 24004KT 10SM CLR 08/02 A3018 RMK AO2
KW43 290815Z AUTO 26003KT 10SM CLR 10/01 A3018 RMK AO2
KW43 290755Z AUTO 28003KT 10SM CLR 11/01 A3018 RMK AO2
KW43 290735Z AUTO 28003KT 10SM CLR 11/02 A3019 RMK AO2
KW43 290715Z AUTO 28004KT 10SM CLR 11/02 A3018 RMK AO2
KW43 290655Z AUTO 29004KT 10SM CLR 11/03 A3018 RMK AO2
KW43 290635Z AUTO 29003KT 10SM CLR 11/03 A3018 RMK AO2
KW43 290615Z AUTO 27005KT 10SM CLR 11/05 A3018 RMK AO2
KW43 290555Z AUTO 26004KT 10SM SCT080 11/05 A3018 RMK AO2
KW43 290535Z AUTO 27004KT 10SM BKN090 12/06 A3018 RMK AO2
KW43 290515Z AUTO 25005KT 10SM SCT090 11/06 A3018 RMK AO2
KW43 290455Z AUTO 24005KT 10SM CLR 12/06 A3017 RMK AO2
KW43 290435Z AUTO 25006KT 10SM CLR 12/06 A3017 RMK AO2
KW43 290415Z AUTO 25007KT 10SM CLR 12/06 A3017 RMK AO2
KW43 290355Z AUTO 25008KT 10SM CLR 12/06 A3016 RMK AO2
KW43 290335Z AUTO 25005KT 10SM SCT090 13/06 A3016 RMK AO2
KW43 290315Z AUTO 24007KT 10SM SCT090 13/05 A3015 RMK AO2
KW43 290255Z AUTO 24007KT 10SM SCT070 BKN090 13/05 A3015 RMK AO2
KW43 290235Z AUTO 26007KT 10SM BKN090 14/04 A3015 RMK AO2
KW43 290215Z AUTO 24008KT 10SM SCT090 14/04 A3014 RMK AO2 LTG DSNT S
KW43 290155Z AUTO 27007KT 10SM SCT095 14/05 A3013 RMK AO2
KW43 290135Z AUTO 26010G16KT 10SM SCT090 15/05 A3014 RMK AO2
KW43 290115Z AUTO 28006KT 10SM SCT090 BKN110 15/04 A3013 RMK AO2
KW43 290055Z AUTO 29010G19KT 10SM BKN090 BKN110 15/05 A3014 RMK AO2
KW43 290035Z AUTO 27011G17KT 10SM SCT090 SCT120 16/05 A3014 RMK AO2
KW43 290015Z AUTO 26010G15KT 10SM SCT090 15/06 A3014 RMK AO2
KW43 282355Z AUTO 26009G16KT 10SM -RA SCT050 BKN070 OVC090 15/07 A3015 RMK AO2
KW43 282335Z AUTO 27017G23KT 10SM RA BKN060 BKN070 OVC085 15/05 A3016 RMK AO2
KW43 282315Z AUTO 28018G26KT 10SM VCTS SCT080 BKN090 BKN120 18/05 A3013 RMK AO2
KW43 282255Z AUTO 26016G20KT 10SM BKN080 17/06 A3013 RMK AO2
KW43 282235Z AUTO 29004KT 10SM VCTS OVC080 16/05 A3013 RMK AO2
KW43 282215Z AUTO 29010KT 260V320 10SM -RA SCT020 BKN080 OVC090 15/05 A3012 RMK AO2 LTG DSNT S
KW43 282155Z AUTO 34020G28KT 10SM SCT080 BKN100 BKN120 18/03 A3013 RMK AO2 LTG DSNT SE AND W
KW43 282135Z AUTO 36009KT 10SM SCT075 BKN100 BKN120 17/05 A3012 RMK AO2 LTG DSNT S
KW43 282115Z AUTO 01018G29KT 10SM VCTS BKN075 BKN090 18/03 A3011 RMK AO2 LTG DSNT N THRU E
KW43 282055Z AUTO 33013G21KT 280V350 10SM SCT065 BKN090 20/02 A3010 RMK AO2 LTG DSNT NE
KW43 282035Z AUTO 30010G21KT 270V330 10SM SCT065 SCT100 21/04 A3011 RMK AO2
KW43 282015Z AUTO 31014G19KT 280V340 10SM SCT065 SCT075 BKN110 20/04 A3012 RMK AO2
KW43 281955Z AUTO 29010G25KT 10SM SCT075 SCT120 20/05 A3012 RMK AO2 LTG DSNT SW
KW43 281935Z AUTO 36010G14KT 10SM SCT060 SCT070 SCT080 18/08 A3012 RMK AO2 LTG DSNT NE
KW43 281915Z AUTO 36011G19KT 10SM SCT050 BKN070 BKN085 18/07 A3013 RMK AO2 LTG DSNT SE AND SW
KW43 281855Z AUTO 02010KT 10SM -RA SCT060 BKN070 OVC120 17/07 A3014 RMK AO2 LTG DSNT SE
KW43 281835Z AUTO 32009G19KT 10SM VCTS SCT060 SCT070 BKN090 19/05 A3015 RMK AO2 LTG DSNT SE AND W
KW43 281815Z AUTO 29005G20KT 10SM SCT060 BKN070 BKN100 18/05 A3015 RMK AO2 LTG DSNT SE
KW43 281755Z AUTO 33009G17KT 10SM SCT055 SCT070 BKN100 18/05 A3016 RMK AO2
KW43 281735Z AUTO 30007KT 280V340 10SM SCT055 SCT090 18/06 A3016 RMK AO2
KW43 281715Z AUTO 33008G16KT 7SM SCT035 BKN090 OVC120 16/03 A3017 RMK AO2
KW43 281655Z AUTO 31008G16KT 10SM SCT080 SCT110 18/05 A3016 RMK AO2
KW43 281635Z AUTO 32010G14KT 10SM SCT100 17/04 A3016 RMK AO2
KW43 281615Z AUTO 31005KT 10SM SCT100 16/05 A3016 RMK AO2
KW43 281555Z AUTO 29008KT 260V320 10SM CLR 17/05 A3017 RMK AO2
KW43 281535Z AUTO 32005KT 10SM CLR 16/05 A3017 RMK AO2
KW43 281515Z AUTO 34009KT 10SM SCT085 16/04 A3017 RMK AO2
KW43 281455Z AUTO 10SM SCT085 15/05 A3018 RMK AO2
KW43 281435Z AUTO 28008KT 10SM BKN085 15/05 A3018 RMK AO2
KW43 281415Z AUTO 25006KT 10SM SCT085 15/06 A3018 RMK AO2
KW43 281355Z AUTO 29006KT 10SM CLR 14/05 A3017 RMK AO2
KW43 281335Z AUTO 28004KT 10SM CLR 13/04 A3017 RMK AO2
KW43 281315Z AUTO 32004KT 10SM CLR 13/04 A3016 RMK AO2
KW43 281255Z AUTO 28003KT 10SM CLR 13/04 A3016 RMK AO2
KW43 281235Z AUTO 32004KT 10SM SCT110 12/04 A3015 RMK AO2
KW43 281215Z AUTO 28003KT 10SM SCT085 BKN110 12/03 A3014 RMK AO2
KW43 281155Z AUTO 28003KT 10SM SCT085 OVC110 12/03 A3014 RMK AO2
KW43 281135Z AUTO 27003KT 10SM BKN085 OVC110 11/03 A3014 RMK AO2
KW43 281115Z AUTO 23005KT 10SM OVC095 11/03 A3013 RMK AO2
KW43 281055Z AUTO 27003KT 10SM SCT095 OVC110 11/03 A3013 RMK AO2
KW43 281035Z AUTO 00000KT 10SM BKN095 OVC110 11/03 A3012 RMK AO2
KW43 281015Z AUTO 24004KT 10SM OVC095 11/04 A3012 RMK AO2
KW43 280955Z AUTO 25007KT 10SM BKN095 OVC110 11/04 A3012 RMK AO2
KW43 280935Z AUTO 22007KT 10SM OVC110 10/05 A3012 RMK AO2
KW43 280915Z AUTO 22005KT 10SM OVC110 11/04 A3012 RMK AO2
KW43 280855Z AUTO 22006KT 10SM SCT100 OVC110 11/05 A3012 RMK AO2
KW43 280835Z AUTO 21008KT 10SM SCT100 OVC120 11/05 A3010 RMK AO2
KW43 280815Z AUTO 21008KT 10SM SCT100 OVC120 11/05 A3010 RMK AO2
KW43 280755Z AUTO 21008KT 10SM OVC120 10/05 A3010 RMK AO2
KW43 280735Z AUTO 22010KT 10SM OVC120 11/05 A3012 RMK AO2
KW43 280715Z AUTO 21009KT 10SM SCT120 10/05 A3012 RMK AO2
KW43 280655Z AUTO 21009KT 10SM SCT120 10/04 A3012 RMK AO2
KW43 280635Z AUTO 21009KT 10SM CLR 10/04 A3012 RMK AO2
KW43 280615Z AUTO 21008KT 10SM CLR 10/04 A3012 RMK AO2
KW43 280555Z AUTO 21009KT 10SM CLR 10/04 A3012 RMK AO2
KW43 280535Z AUTO 21009KT 10SM CLR 10/05 A3012 RMK AO2
KW43 280515Z AUTO 20007KT 10SM CLR 09/05 A3012 RMK AO2
KW43 280455Z AUTO 20008KT 10SM SCT085 09/05 A3012 RMK AO2
KW43 280435Z AUTO 18007KT 10SM SCT085 10/05 A3012 RMK AO2
KW43 280415Z AUTO 19006KT 10SM SCT085 10/05 A3012 RMK AO2
KW43 280355Z AUTO 18006KT 10SM SCT075 SCT095 10/05 A3012 RMK AO2
KW43 280335Z AUTO 20007KT 10SM SCT075 BKN095 11/05 A3012 RMK AO2
KW43 280315Z AUTO 00000KT 10SM SCT075 OVC085 12/05 A3012 RMK AO2
KW43 280255Z AUTO 23006KT 10SM SCT075 BKN085 12/05 A3011 RMK AO2
KW43 280235Z AUTO 21006KT 10SM SCT085 12/05 A3009 RMK AO2
KW43 280215Z AUTO 20006KT 10SM SCT120 12/05 A3009 RMK AO2
KW43 280155Z AUTO 12003KT 10SM SCT090 BKN120 14/05 A3009 RMK AO2
KW43 280135Z AUTO 36003KT 10SM SCT060 BKN090 OVC120 15/05 A3011 RMK AO2
KW43 280115Z AUTO 33018G28KT 10SM BKN060 OVC090 17/01 A3011 RMK AO2
KW43 280055Z AUTO 30009G16KT 10SM OVC090 17/00 A3008 RMK AO2
KW43 280035Z AUTO 30009G21KT 10SM BKN090 OVC120 18/00 A3008 RMK AO2
KW43 280015Z AUTO 28014G23KT 10SM SCT100 BKN120 18/00 A3007 RMK AO2
KW43 272355Z AUTO 28016G21KT 10SM BKN090 BKN110 18/00 A3007 RMK AO2
KW43 272335Z AUTO 29012G22KT 10SM OVC090 18/00 A3008 RMK AO2


Page loaded:  11:33 UTC  |   04:33 AM Pacific  |   05:33 AM Mountain  |   06:33 AM Central  |   07:33 AM Eastern

 

ADVISORIES

FORECASTS

FORECASTS

OBSERVATIONS

USER TOOLS

ABOUT US